Latest Weather Observations for Mount Gambier

IDS60801

Issued at 8:31 am CDT Thursday 19 January 2017 (issued every 30 minutes, with the page automatically refreshed every 10 minutes)

About weather observations | Map of weather stations | Latest weather observations for SA | Other Formats
Station Details ID: 026021 Name: MOUNT GAMBIER AERO Lat: -37.75 Lon: 140.77 Height: 63.0 m
Data from the previous 72 hours. | See also: Recent months at Mount Gambier
Date/Time
CDT
Temp
°C
App
Temp
°C
Dew
Point
°C
Rel
Hum
%
Delta-T
°C
Wind Press
QNH
hPa
Press
MSL
hPa
Rain since
9am
mm
Dir  Spd
km/h
Gust
km/h
Spd
kts
Gust
kts
19/08:00am 13.3 - - - - ESE 20 30 11 16 1014.1 1013.9 0.0
19/07:30am 11.5 - - - - ESE 13 20 7 11 1014.0 1013.8 0.0
19/07:00am 9.6 - - - - SE 13 17 7 9 1014.0 1013.8 0.0
19/06:30am 7.7 - - - - ESE 9 15 5 8 1014.1 1013.9 0.0
19/06:00am 7.6 - - - - SE 13 17 7 9 1014.2 1014.0 0.0
19/05:30am 7.4 - - - - SE 11 13 6 7 1014.4 1014.2 0.0
19/05:00am 8.3 - - - - ESE 9 11 5 6 1014.4 1014.2 0.0
19/04:30am 8.5 - - - - ESE 11 15 6 8 1014.4 1014.2 0.0
19/04:00am 8.3 - - - - SE 13 17 7 9 1014.3 1014.1 0.0
19/03:30am 8.0 - - - - SE 11 15 6 8 1014.6 1014.4 0.0
19/03:00am 8.2 - - - - SE 13 15 7 8 1014.9 1014.7 0.0
19/02:30am 8.4 - - - - SE 13 15 7 8 1015.3 1015.1 0.0
19/02:00am 8.3 - - - - SE 9 11 5 6 1015.9 1015.7 0.0
19/01:30am 9.5 - - - - SE 7 7 4 4 1016.3 1016.1 0.0
19/01:00am 9.3 - - - - SSE 4 7 2 4 1016.4 1016.2 0.0
19/12:30am 9.2 - - - - SSE 9 11 5 6 1016.6 1016.4 0.0
19/12:00am 9.8 - - - - SE 9 11 5 6 1017.0 1016.8 0.0
 
Date/Time
CDT
Temp
°C
App
Temp
°C
Dew
Point
°C
Rel
Hum
%
Delta-T
°C
Wind Press
QNH
hPa
Press
MSL
hPa
Rain since
9am
mm
Dir  Spd
km/h
Gust
km/h
Spd
kts
Gust
kts
18/11:30pm 9.9 - - - - SE 11 15 6 8 1017.3 1017.1 0.0
18/11:00pm 10.3 - - - - SE 9 13 5 7 1017.4 1017.2 0.0
18/10:30pm 11.1 - - - - SE 11 15 6 8 1017.5 1017.3 0.0
18/10:00pm 11.8 - - - - SE 15 19 8 10 1017.4 1017.2 0.0
18/09:30pm 12.6 - - - - SE 13 17 7 9 1017.2 1017.0 0.0
18/09:00pm 13.4 - - - - SSE 19 28 10 15 1017.1 1016.9 0.0
18/08:30pm 14.1 - - - - SSE 20 30 11 16 1016.8 1016.6 0.0
18/08:00pm 15.2 - - - - SSE 26 39 14 21 1016.7 1016.5 0.0
18/07:30pm 16.3 - - - - SSE 32 39 17 21 1016.6 1016.4 0.0
18/07:00pm 17.3 - - - - SSE 30 41 16 22 1016.5 1016.3 0.0
18/06:30pm 17.8 - - - - SSE 28 37 15 20 1016.4 1016.2 0.0
18/06:00pm 18.7 - - - - S 30 37 16 20 1016.2 1016.0 0.0
18/05:30pm 19.6 - - - - SSE 30 39 16 21 1016.2 1016.0 0.0
18/05:00pm 19.7 - - - - SSE 30 39 16 21 1016.4 1016.2 0.0
18/04:30pm 19.9 - - - - S 28 37 15 20 1016.5 1016.3 0.0
18/04:00pm 20.2 - - - - S 28 39 15 21 1016.4 1016.2 0.0
18/03:30pm 19.8 - - - - S 28 39 15 21 1016.6 1016.4 0.0
18/03:00pm 19.9 - - - - S 26 39 14 21 1016.7 1016.5 0.0
18/02:30pm 19.5 - - - - SSE 28 39 15 21 1016.8 1016.6 0.0
18/02:00pm 20.2 - - - - SSE 28 41 15 22 1017.0 1016.8 0.0
18/01:30pm 19.4 - - - - SSE 24 32 13 17 1017.0 1016.8 0.0
18/01:00pm 20.3 - - - - S 26 39 14 21 1017.2 1017.0 0.0
18/12:30pm 20.1 - - - - S 24 44 13 24 1017.3 1017.1 0.0
18/12:00pm 19.9 - - - - S 22 32 12 17 1017.4 1017.2 0.0
18/11:30am 19.7 - - - - SSE 28 37 15 20 1017.2 1017.0 0.0
18/11:00am 18.8 - - - - S 24 39 13 21 1016.9 1016.7 0.0
18/10:30am 17.6 - - - - S 26 33 14 18 1016.7 1016.5 0.0
18/10:00am 19.2 - - - - S 26 35 14 19 1016.8 1016.6 0.0
18/09:30am 17.0 - - - - S 24 30 13 16 1016.8 1016.6 0.0
18/09:00am 18.5 - - - - SSE 24 35 13 19 1016.3 1016.1 0.0
18/08:30am 17.4 - - - - S 26 35 14 19 1015.8 1015.6 0.0
18/08:00am 17.0 - - - - S 22 28 12 15 1015.6 1015.4 0.0
18/07:30am 16.0 - - - - SSW 19 26 10 14 1015.5 1015.3 0.0
18/07:00am 14.8 - - - - SSW 19 24 10 13 1015.1 1014.9 0.0
18/06:30am 13.6 - - - - S 17 22 9 12 1014.4 1014.2 0.0
18/06:00am 13.9 - - - - S 20 28 11 15 1013.8 1013.6 0.0
18/05:30am 14.3 - - - - S 24 32 13 17 1013.2 1013.0 0.0
18/05:00am 13.8 - - - - SW 15 24 8 13 1012.8 1012.6 0.0
18/04:30am 13.5 - - - - SW 9 15 5 8 1012.3 1012.1 0.0
18/04:00am 13.5 - - - - SSW 11 15 6 8 1011.8 1011.6 0.0
18/03:30am 13.6 - - - - SSW 11 19 6 10 1011.9 1011.7 0.0
18/03:00am 13.6 - - - - SW 13 28 7 15 1011.4 1011.2 0.0
18/02:30am 13.6 - - - - S 11 13 6 7 1011.3 1011.1 0.0
18/02:00am 13.7 - - - - S 22 32 12 17 1011.5 1011.3 0.0
18/01:30am 14.1 - - - - SSW 19 28 10 15 1011.7 1011.5 0.0
18/01:24am 14.3 - - - - SSW 20 30 11 16 1012.0 1011.8 0.0
18/01:11am 14.6 - - - - SSW 28 33 15 18 1012.2 1012.0 0.0
18/01:00am 14.9 - - - - SSW 24 32 13 17 1012.0 1011.8 0.0
18/12:30am 15.4 - - - - S 19 28 10 15 1011.7 1011.5 0.0
18/12:29am 15.4 - - - - S 20 28 11 15 1011.6 1011.4 0.0
18/12:05am 15.7 - - - - S 13 19 7 10 1011.6 1011.4 0.0
18/12:00am 15.7 - - - - SSW 13 19 7 10 1011.7 1011.5 0.0
 
Date/Time
CDT
Temp
°C
App
Temp
°C
Dew
Point
°C
Rel
Hum
%
Delta-T
°C
Wind Press
QNH
hPa
Press
MSL
hPa
Rain since
9am
mm
Dir  Spd
km/h
Gust
km/h
Spd
kts
Gust
kts
17/11:38pm 15.9 - - - - SSW 17 24 9 13 1011.9 1011.7 0.0
17/11:30pm 16.0 - - - - SSW 19 26 10 14 1012.0 1011.8 0.0
17/11:15pm 16.2 - - - - SSW 17 24 9 13 1012.0 1011.8 0.0
17/11:00pm 16.3 - - - - SSW 20 30 11 16 1011.9 1011.7 0.0
17/10:30pm 16.4 - - - - SSW 20 28 11 15 1012.5 1012.3 0.0
17/10:00pm 16.5 - - - - SSW 19 24 10 13 1012.1 1011.9 0.0
17/09:30pm 16.8 - - - - SW 20 28 11 15 1012.6 1012.4 0.0
17/09:13pm 17.0 - - - - SW 24 33 13 18 1012.6 1012.4 0.0
17/09:00pm 17.2 - - - - SSW 26 33 14 18 1012.3 1012.1 0.0
17/08:38pm 17.4 - - - - SSW 22 35 12 19 1012.0 1011.8 0.0
17/08:30pm 17.5 - - - - SW 20 30 11 16 1011.8 1011.6 0.0
17/08:02pm 17.8 - - - - S 17 22 9 12 1010.0 1009.9 0.0
17/08:00pm 17.8 - - - - S 17 26 9 14 1009.9 1009.8 0.0
17/07:40pm 18.0 - - - - SSW 22 32 12 17 1010.3 1010.2 0.0
17/07:30pm 18.1 - - - - SSW 24 33 13 18 1010.3 1010.2 0.0
17/07:00pm 18.6 - - - - SSW 24 32 13 17 1009.4 1009.3 0.0
17/06:30pm 20.5 - - - - SSW 30 35 16 19 1008.9 1008.8 0.0
17/06:00pm 22.4 - - - - SSW 20 28 11 15 1007.9 1007.8 0.0
17/05:30pm 23.0 - - - - SW 19 28 10 15 1007.3 1007.2 0.0
17/05:00pm 23.9 - - - - SSW 17 22 9 12 1006.8 1006.7 0.0
17/04:30pm 25.0 - - - - S 17 20 9 11 1006.5 1006.4 0.0
17/04:00pm 25.4 - - - - S 15 19 8 10 1006.5 1006.4 0.0
17/03:30pm 24.7 - - - - S 19 24 10 13 1006.6 1006.5 0.0
17/03:00pm 26.5 - - - - SSW 22 28 12 15 1006.7 1006.6 0.0
17/02:30pm 28.3 - - - - SW 19 26 10 14 1006.7 1006.6 0.0
17/02:00pm 28.1 - - - - SSW 15 20 8 11 1007.0 1006.9 0.0
17/01:30pm 27.3 - - - - SW 11 15 6 8 1006.9 1006.8 0.0
17/01:00pm 26.7 - - - - NW 9 11 5 6 1007.2 1007.1 0.0
17/12:30pm 26.0 - - - - NW 11 13 6 7 1007.3 1007.2 0.0
17/12:00pm 25.9 - - - - NW 9 11 5 6 1007.6 1007.5 0.0
17/11:30am 25.7 - - - - W 13 19 7 10 1007.8 1007.7 0.0
17/11:00am 24.6 25.3 17.1 63 4.7 N 9 11 5 6 1007.2 1007.1 0.0
17/10:30am 23.3 23.3 17.1 68 3.8 NNE 13 17 7 9 1007.2 1007.1 0.0
17/10:00am 22.2 21.5 16.5 70 3.5 N 15 19 8 10 1007.8 1007.7 0.0
17/09:30am 21.6 20.9 16.3 72 3.2 N 15 17 8 9 1008.4 1008.3 0.0
17/09:00am 21.5 21.1 16.2 72 3.2 WNW 13 17 7 9 1008.9 1008.8 0.0
17/08:30am 21.2 21.0 15.7 71 3.3 NNW 11 13 6 7 1008.2 1008.1 0.0
17/08:00am 20.6 20.3 15.4 72 3.1 N 11 19 6 10 1008.5 1008.4 0.0
17/07:30am 21.1 19.7 14.5 66 3.9 NW 15 26 8 14 1008.2 1008.1 0.0
17/07:00am 19.5 18.3 15.0 75 2.6 N 15 24 8 13 1008.1 1008.0 0.0
17/06:30am 18.3 17.5 15.0 81 1.9 NNE 13 19 7 10 1007.6 1007.5 0.0
17/06:00am 17.6 17.9 14.9 84 1.6 NE 7 9 4 5 1007.7 1007.6 0.0
17/05:30am 16.2 18.0 15.4 95 0.5 CALM 0 0 0 0 1007.4 1007.3 0.0
17/05:00am 16.0 15.9 14.9 93 0.6 NNE 9 11 5 6 1007.4 1007.3 0.0
17/04:30am 15.1 15.5 13.8 92 0.7 NE 4 7 2 4 1007.6 1007.5 0.0
17/04:00am 16.0 16.1 14.0 88 1.1 WNW 6 7 3 4 1007.3 1007.2 0.0
17/03:30am 16.6 17.1 13.9 84 1.5 NNE 4 6 2 3 1007.6 1007.5 0.0
17/03:00am 17.8 18.7 13.9 78 2.2 NE 2 9 1 5 1007.7 1007.6 0.0
17/02:30am 18.2 17.2 14.5 79 2.1 NNE 13 17 7 9 1008.0 1007.9 0.0
17/02:00am 18.1 18.3 14.6 80 2.0 NE 7 9 4 5 1008.2 1008.1 0.0
17/01:30am 18.3 17.8 15.0 81 1.9 NNE 11 13 6 7 1008.4 1008.3 0.0
17/01:00am 16.8 16.6 15.7 93 0.6 NE 11 13 6 7 1008.6 1008.5 0.0
17/12:30am 17.5 16.7 15.1 86 1.4 NE 13 13 7 7 1008.7 1008.6 0.0
17/12:00am 17.9 17.3 14.6 81 1.9 NE 11 13 6 7 1008.9 1008.8 0.0
 
Date/Time
CDT
Temp
°C
App
Temp
°C
Dew
Point
°C
Rel
Hum
%
Delta-T
°C
Wind Press
QNH
hPa
Press
MSL
hPa
Rain since
9am
mm
Dir  Spd
km/h
Gust
km/h
Spd
kts
Gust
kts
16/11:30pm 17.8 19.2 14.5 81 1.9 CALM 0 4 0 2 1009.1 1009.0 0.0
16/11:00pm 17.6 19.0 14.5 82 1.8 CALM 0 0 0 0 1009.3 1009.2 0.0
16/10:30pm 18.3 19.8 14.6 79 2.1 CALM 0 0 0 0 1009.7 1009.6 0.0
16/10:00pm 18.6 19.9 14.1 75 2.6 CALM 0 0 0 0 1009.7 1009.6 0.0
16/09:30pm 19.8 20.8 14.2 70 3.3 NW 2 7 1 4 1009.7 1009.6 0.0
16/09:00pm 21.6 21.0 14.7 65 4.1 W 11 15 6 8 1009.9 1009.8 0.0
16/08:30pm 23.1 22.6 14.9 60 4.9 WNW 11 15 6 8 1009.7 1009.6 0.0
16/08:00pm 25.0 23.1 15.3 55 5.9 WNW 19 28 10 15 1009.7 1009.6 0.0
16/07:30pm 27.1 23.6 15.5 49 7.1 W 28 33 15 18 1009.8 1009.7 0.0
16/07:00pm 28.1 25.2 16.1 48 7.4 W 26 33 14 18 1009.3 1009.2 0.0
16/06:30pm 29.8 28.4 16.6 45 8.3 W 19 26 10 14 1009.1 1009.0 0.0
16/06:00pm 30.5 29.1 16.9 44 8.6 WNW 20 30 11 16 1009.2 1009.1 0.0
16/05:30pm 30.6 29.5 17.7 46 8.3 WNW 20 30 11 16 1009.3 1009.2 0.0
16/05:00pm 31.2 29.8 17.9 45 8.5 WNW 22 32 12 17 1009.7 1009.6 0.0
16/04:30pm 30.7 29.3 18.8 49 7.7 WSW 24 32 13 17 1009.9 1009.8 0.0
16/04:00pm 31.3 31.3 19.0 48 8.0 WNW 17 28 9 15 1010.1 1010.0 0.0
16/03:30pm 32.5 32.0 17.9 41 9.4 NNW 17 30 9 16 1010.2 1010.1 0.0
16/03:00pm 31.2 29.8 17.1 42 9.0 NNW 20 32 11 17 1010.6 1010.5 0.0
16/02:30pm 31.7 31.2 18.7 46 8.5 NNW 19 33 10 18 1011.0 1010.8 0.0
16/02:00pm 30.6 29.8 18.0 47 8.1 NNW 19 28 10 15 1011.4 1011.2 0.0
16/01:30pm 30.0 28.2 18.8 51 7.3 NNW 26 33 14 18 1012.2 1012.0 0.0
16/01:00pm 28.0 26.7 16.9 51 7.0 NNW 19 33 10 18 1012.5 1012.3 0.0
16/12:30pm 28.0 27.2 18.4 56 6.1 NNW 20 30 11 16 1013.2 1013.0 0.0
16/12:00pm 26.4 25.9 17.7 58 5.5 NNW 17 26 9 14 1013.2 1013.0 0.0
16/11:30am 25.1 23.8 17.3 62 4.9 N 20 28 11 15 1013.4 1013.2 0.0
16/11:00am 24.2 23.1 17.4 65 4.2 N 19 24 10 13 1013.7 1013.5 0.0
16/10:30am 22.8 22.6 16.8 69 3.7 N 13 17 7 9 1014.0 1013.8 0.0
16/10:00am 21.0 21.0 16.2 74 2.9 N 11 17 6 9 1014.3 1014.1 0.0
16/09:30am 19.5 19.6 16.5 83 1.8 NNE 11 17 6 9 1014.7 1014.5 0.0
16/09:00am 16.8 16.8 15.3 91 0.9 NE 9 13 5 7 1015.0 1014.8 0.0

Other Formats:

Comma delimited format used in spreadsheet applications
http://www.bom.gov.au/fwo/IDS60801/IDS60801.94821.axf

JavaScript Object Notation format (JSON) in row-major order
http://www.bom.gov.au/fwo/IDS60801/IDS60801.94821.json